createdAt,value
2019-06-26T00:01:24.786Z,78.40
2019-06-26T00:06:30.332Z,78.17
2019-06-26T00:11:34.921Z,78.44
2019-06-26T00:16:39.398Z,78.64
2019-06-26T00:21:43.912Z,79.01
2019-06-26T00:26:48.392Z,79.25
2019-06-26T00:31:52.884Z,80.05
2019-06-26T00:36:58.506Z,79.31
2019-06-26T00:42:02.988Z,80.03
2019-06-26T00:47:07.599Z,80.27
2019-06-26T00:52:12.073Z,80.89
2019-06-26T00:57:16.566Z,80.74
2019-06-26T01:02:21.614Z,81.45
2019-06-26T01:07:26.164Z,82.29
2019-06-26T01:12:30.684Z,82.02
2019-06-26T01:17:35.173Z,81.83
2019-06-26T01:22:39.679Z,81.99
2019-06-26T01:27:44.299Z,82.34
2019-06-26T01:32:48.833Z,81.99
2019-06-26T01:37:53.327Z,82.35
2019-06-26T01:42:57.881Z,82.66
2019-06-26T01:48:02.563Z,82.58
2019-06-26T01:53:07.100Z,82.65
2019-06-26T01:58:11.579Z,83.13
2019-06-26T02:03:16.054Z,83.65
2019-06-26T02:08:20.543Z,83.44
2019-06-26T02:13:25.020Z,83.49
2019-06-26T02:18:49.852Z,84.09
2019-06-26T02:23:54.488Z,84.58
2019-06-26T02:28:58.965Z,84.46
2019-06-26T02:34:03.451Z,84.89
2019-06-26T02:39:08.141Z,85.01
2019-06-26T02:44:12.733Z,85.53
2019-06-26T02:49:17.207Z,85.45
2019-06-26T02:54:21.682Z,86.08
2019-06-26T02:59:26.169Z,86.03
2019-06-26T03:04:30.650Z,85.75
2019-06-26T03:09:35.141Z,86.08
2019-06-26T03:14:39.632Z,86.69
2019-06-26T03:19:44.122Z,86.40
2019-06-26T03:24:48.593Z,86.54
2019-06-26T03:29:53.157Z,86.55
2019-06-26T03:34:57.642Z,86.35
2019-06-26T03:40:02.311Z,86.17
2019-06-26T03:45:24.255Z,85.72
2019-06-26T03:50:14.587Z,85.75
2019-06-26T03:55:19.408Z,85.49
2019-06-26T04:00:29.745Z,84.96
2019-06-26T04:05:34.954Z,84.25
2019-06-26T04:10:43.051Z,84.37
2019-06-26T04:15:45.673Z,84.28
2019-06-26T04:20:50.155Z,83.53
2019-06-26T04:25:54.639Z,83.26
2019-06-26T04:30:59.136Z,82.03
2019-06-26T04:36:03.657Z,81.78
2019-06-26T04:41:08.181Z,81.55
2019-06-26T04:46:12.668Z,80.48
2019-06-26T04:51:17.182Z,79.40
2019-06-26T04:56:21.745Z,78.81
2019-06-26T05:01:26.237Z,77.84
2019-06-26T05:06:30.699Z,77.49
2019-06-26T05:11:35.243Z,76.87
2019-06-26T05:16:39.813Z,76.27
2019-06-26T05:21:44.351Z,75.63
2019-06-26T05:26:48.905Z,72.73
2019-06-26T05:31:53.386Z,73.21
2019-06-26T05:36:57.868Z,71.30
2019-06-26T05:42:05.717Z,69.53
2019-06-26T05:47:08.535Z,67.32
2019-06-26T05:52:16.459Z,66.45
2019-06-26T05:57:19.327Z,65.61
2019-06-26T06:02:23.802Z,64.67
2019-06-26T06:07:28.282Z,60.38
2019-06-26T06:12:32.749Z,57.74
2019-06-26T06:17:37.663Z,56.70
2019-06-26T06:22:42.220Z,57.12
2019-06-26T06:27:46.827Z,53.04
2019-06-26T06:32:51.335Z,55.01
2019-06-26T06:37:55.819Z,53.36
2019-06-26T06:43:00.293Z,54.06
2019-06-26T06:48:05.223Z,51.67
2019-06-26T06:53:09.704Z,49.90
2019-06-26T06:58:14.208Z,48.63
2019-06-26T07:03:19.669Z,43.40
2019-06-26T07:08:24.132Z,45.43
2019-06-26T07:13:28.650Z,44.30
2019-06-26T07:18:33.213Z,41.87
2019-06-26T07:23:37.684Z,43.10
2019-06-26T07:28:42.163Z,36.85
2019-06-26T07:33:46.631Z,36.45
2019-06-26T07:38:51.101Z,36.85
2019-06-26T07:43:55.772Z,35.62
2019-06-26T07:49:01.280Z,33.21
2019-06-26T07:54:08.625Z,32.54
2019-06-26T07:59:13.996Z,30.21
2019-06-26T08:04:20.473Z,28.35
2019-06-26T08:09:25.065Z,27.55
2019-06-26T08:14:30.222Z,26.03
2019-06-26T08:19:34.869Z,25.58
2019-06-26T08:24:39.340Z,27.89
2019-06-26T08:29:43.824Z,28.06
2019-06-26T08:34:48.286Z,28.22
2019-06-26T08:39:52.750Z,28.51
2019-06-26T08:44:57.217Z,27.52
2019-06-26T08:50:02.129Z,28.70
2019-06-26T08:55:08.988Z,27.46
2019-06-26T09:00:14.809Z,25.89
2019-06-26T09:05:19.579Z,28.83
2019-06-26T09:10:24.113Z,29.11
2019-06-26T09:15:28.582Z,28.29
2019-06-26T09:20:38.604Z,29.97
2019-06-26T09:25:43.087Z,29.04
2019-06-26T09:30:47.563Z,27.67
2019-06-26T09:35:52.032Z,26.54
2019-06-26T09:40:56.518Z,26.09
2019-06-26T09:46:01.010Z,23.23
2019-06-26T09:51:05.487Z,24.33
2019-06-26T09:56:09.963Z,24.28
2019-06-26T10:01:14.578Z,23.62
2019-06-26T10:06:19.055Z,22.66
2019-06-26T10:11:23.521Z,25.27
2019-06-26T10:16:27.991Z,24.20
2019-06-26T10:21:32.584Z,23.92
2019-06-26T10:26:37.185Z,22.79
2019-06-26T10:31:41.656Z,21.98
2019-06-26T10:36:46.252Z,23.80
2019-06-26T10:41:54.604Z,22.92
2019-06-26T10:46:56.918Z,23.70
2019-06-26T10:52:01.392Z,23.48
2019-06-26T10:57:05.942Z,22.01
2019-06-26T11:02:10.462Z,23.24
2019-06-26T11:07:14.936Z,23.88
2019-06-26T11:12:19.404Z,24.60
2019-06-26T11:17:23.891Z,22.55
2019-06-26T11:22:28.367Z,22.56
2019-06-26T11:27:32.854Z,23.34
2019-06-26T11:32:37.499Z,23.73
2019-06-26T11:37:41.961Z,22.42
2019-06-26T11:42:46.440Z,21.86
2019-06-26T11:47:50.985Z,20.54
2019-06-26T11:52:55.488Z,20.64
2019-06-26T11:57:59.971Z,21.01
2019-06-26T12:03:04.922Z,21.42
2019-06-26T12:08:09.532Z,22.25
2019-06-26T12:13:13.994Z,21.48
2019-06-26T12:18:18.645Z,21.87
2019-06-26T12:23:23.200Z,21.90
2019-06-26T12:28:27.675Z,20.83
2019-06-26T12:33:33.498Z,20.66
2019-06-26T12:38:38.054Z,20.76
2019-06-26T12:43:42.577Z,21.91
2019-06-26T12:48:47.028Z,22.76
2019-06-26T12:53:51.513Z,21.60
2019-06-26T12:58:59.668Z,21.17
2019-06-26T13:04:02.165Z,23.28
2019-06-26T13:09:08.279Z,22.41
2019-06-26T13:14:12.766Z,23.47
2019-06-26T13:19:17.543Z,22.06
2019-06-26T13:24:22.027Z,24.00
2019-06-26T13:29:26.558Z,26.85
2019-06-26T13:34:31.033Z,27.58
2019-06-26T13:39:35.634Z,27.21
2019-06-26T13:44:40.144Z,28.86
2019-06-26T13:49:44.818Z,29.16
2019-06-26T13:54:49.333Z,28.55
2019-06-26T13:59:53.892Z,27.96
2019-06-26T14:04:58.369Z,28.55
2019-06-26T14:10:03.270Z,28.22
2019-06-26T14:15:08.753Z,28.55
2019-06-26T14:20:13.704Z,28.12
2019-06-26T14:25:18.353Z,28.12
2019-06-26T14:30:23.403Z,28.80
2019-06-26T14:35:27.829Z,28.43
2019-06-26T14:40:32.314Z,28.84
2019-06-26T14:45:36.779Z,30.14
2019-06-26T14:50:41.321Z,28.77
2019-06-26T14:55:45.945Z,28.62
2019-06-26T15:00:50.416Z,26.72
2019-06-26T15:05:55.041Z,27.97
2019-06-26T15:10:59.503Z,28.74
2019-06-26T15:16:04.047Z,28.14
2019-06-26T15:21:08.529Z,28.89
2019-06-26T15:26:13.192Z,29.00
2019-06-26T15:31:17.699Z,29.49
2019-06-26T15:36:22.169Z,28.58
2019-06-26T15:41:26.649Z,29.21
2019-06-26T15:46:31.230Z,30.26
2019-06-26T15:51:35.694Z,30.90
2019-06-26T15:56:40.461Z,30.21
2019-06-26T16:01:45.071Z,30.26
2019-06-26T16:06:49.547Z,29.86
2019-06-26T16:11:54.005Z,30.39
2019-06-26T16:17:00.121Z,31.42
2019-06-26T16:22:04.930Z,31.92
2019-06-26T16:27:09.398Z,32.03
2019-06-26T16:32:14.105Z,32.36
2019-06-26T16:37:18.980Z,32.15
2019-06-26T16:42:25.494Z,32.83
2019-06-26T16:47:29.767Z,32.54
2019-06-26T16:52:47.890Z,33.10
2019-06-26T16:57:40.437Z,33.10
2019-06-26T17:02:44.971Z,33.08
2019-06-26T17:07:49.446Z,33.08
2019-06-26T17:12:53.935Z,34.10
2019-06-26T17:17:58.539Z,34.10
2019-06-26T17:23:06.006Z,34.67
2019-06-26T17:28:09.358Z,36.01
2019-06-26T17:33:13.835Z,36.01
2019-06-26T17:38:18.368Z,37.19
2019-06-26T17:43:22.831Z,37.30
2019-06-26T17:48:27.311Z,37.63
2019-06-26T17:53:31.939Z,38.53
2019-06-26T17:58:36.484Z,39.44
2019-06-26T18:03:41.022Z,40.47
2019-06-26T18:08:45.500Z,41.13
2019-06-26T18:13:49.972Z,41.97
2019-06-26T18:18:54.553Z,41.92
2019-06-26T18:23:59.060Z,42.70
2019-06-26T18:29:03.578Z,43.51
2019-06-26T18:34:09.176Z,43.99
2019-06-26T18:39:13.661Z,44.58
2019-06-26T18:44:18.149Z,46.25
2019-06-26T18:49:22.736Z,46.43
2019-06-26T18:54:27.412Z,46.78
2019-06-26T18:59:32.875Z,47.54
2019-06-26T19:04:37.367Z,48.51
2019-06-26T19:09:41.952Z,49.05
2019-06-26T19:14:46.585Z,48.56
2019-06-26T19:19:51.898Z,49.60
2019-06-26T19:24:57.602Z,50.97
2019-06-26T19:30:02.186Z,51.02
2019-06-26T19:35:18.085Z,51.64
2019-06-26T19:40:14.581Z,50.91
2019-06-26T19:45:19.614Z,50.45
2019-06-26T19:50:24.102Z,52.12
2019-06-26T19:55:28.583Z,52.24
2019-06-26T20:00:33.058Z,52.60
2019-06-26T20:05:37.552Z,52.88
2019-06-26T20:10:42.070Z,52.65
2019-06-26T20:15:46.548Z,51.83
2019-06-26T20:20:52.125Z,52.15
2019-06-26T20:25:56.605Z,52.33
2019-06-26T20:31:01.100Z,51.60
2019-06-26T20:36:05.577Z,52.51
2019-06-26T20:41:10.173Z,51.57
2019-06-26T20:46:15.648Z,51.59
2019-06-26T20:51:21.163Z,52.52
2019-06-26T20:56:25.915Z,52.49
2019-06-26T21:01:30.576Z,52.21
2019-06-26T21:06:35.130Z,52.15
2019-06-26T21:11:39.782Z,52.38
2019-06-26T21:16:44.314Z,52.59
2019-06-26T21:21:48.807Z,52.52
2019-06-26T21:26:53.473Z,52.05
2019-06-26T21:31:57.988Z,54.94
2019-06-26T21:37:02.551Z,55.71
2019-06-26T21:42:07.086Z,56.08
2019-06-26T21:47:11.644Z,56.65
2019-06-26T21:52:16.107Z,56.42
2019-06-26T21:57:20.595Z,55.96
2019-06-26T22:02:43.420Z,57.00
2019-06-26T22:07:49.630Z,57.62
2019-06-26T22:13:01.454Z,57.47
2019-06-26T22:18:06.107Z,55.79
2019-06-26T22:23:10.666Z,55.43
2019-06-26T22:28:15.169Z,55.84
2019-06-26T22:33:19.643Z,56.63
2019-06-26T22:38:24.163Z,56.59
2019-06-26T22:43:28.646Z,57.13
2019-06-26T22:48:33.115Z,58.29
2019-06-26T22:53:37.591Z,55.45
2019-06-26T22:58:42.062Z,55.47
2019-06-26T23:03:46.544Z,55.40
2019-06-26T23:08:51.020Z,55.27
2019-06-26T23:13:56.621Z,60.57
2019-06-26T23:19:01.099Z,60.62
2019-06-26T23:24:05.709Z,61.50
2019-06-26T23:29:10.262Z,61.18
2019-06-26T23:34:14.754Z,61.21
2019-06-26T23:39:19.256Z,61.08
2019-06-26T23:44:23.738Z,59.71
2019-06-26T23:49:28.212Z,59.86
2019-06-26T23:54:32.792Z,58.93
2019-06-26T23:59:38.290Z,59.14
